sensor_id;sensor_type;location;lat;lon;timestamp;temperature;humidity
21169;DHT22;10742;51.816;8.662;2023-06-04T00:01:35;16.40;48.80
21169;DHT22;10742;51.816;8.662;2023-06-04T00:04:38;16.30;48.80
21169;DHT22;10742;51.816;8.662;2023-06-04T00:07:40;16.30;48.80
21169;DHT22;10742;51.816;8.662;2023-06-04T00:10:43;16.30;49.00
21169;DHT22;10742;51.816;8.662;2023-06-04T00:13:46;16.30;49.20
21169;DHT22;10742;51.816;8.662;2023-06-04T00:16:48;16.30;49.20
21169;DHT22;10742;51.816;8.662;2023-06-04T00:19:51;16.20;49.10
21169;DHT22;10742;51.816;8.662;2023-06-04T00:22:53;16.20;49.20
21169;DHT22;10742;51.816;8.662;2023-06-04T00:25:56;16.20;49.10
21169;DHT22;10742;51.816;8.662;2023-06-04T00:28:59;16.20;49.20
21169;DHT22;10742;51.816;8.662;2023-06-04T00:32:02;16.10;49.20
21169;DHT22;10742;51.816;8.662;2023-06-04T00:35:05;16.10;49.40
21169;DHT22;10742;51.816;8.662;2023-06-04T00:38:08;16.10;49.50
21169;DHT22;10742;51.816;8.662;2023-06-04T00:41:10;16.00;49.60
21169;DHT22;10742;51.816;8.662;2023-06-04T00:44:13;16.00;49.80
21169;DHT22;10742;51.816;8.662;2023-06-04T00:47:16;16.00;50.60
21169;DHT22;10742;51.816;8.662;2023-06-04T00:50:20;15.90;50.00
21169;DHT22;10742;51.816;8.662;2023-06-04T00:53:24;15.90;50.20
21169;DHT22;10742;51.816;8.662;2023-06-04T00:56:28;15.90;50.60
21169;DHT22;10742;51.816;8.662;2023-06-04T00:59:32;15.90;50.60
21169;DHT22;10742;51.816;8.662;2023-06-04T01:02:37;15.80;50.90
21169;DHT22;10742;51.816;8.662;2023-06-04T01:05:41;15.80;51.20
21169;DHT22;10742;51.816;8.662;2023-06-04T01:08:45;15.70;51.10
21169;DHT22;10742;51.816;8.662;2023-06-04T01:11:49;15.60;51.30
21169;DHT22;10742;51.816;8.662;2023-06-04T01:14:52;15.60;51.40
21169;DHT22;10742;51.816;8.662;2023-06-04T01:17:59;15.50;51.60
21169;DHT22;10742;51.816;8.662;2023-06-04T01:21:09;15.40;52.10
21169;DHT22;10742;51.816;8.662;2023-06-04T01:24:15;15.40;52.20
21169;DHT22;10742;51.816;8.662;2023-06-04T01:27:18;15.30;52.00
21169;DHT22;10742;51.816;8.662;2023-06-04T01:30:28;15.30;52.20
21169;DHT22;10742;51.816;8.662;2023-06-04T01:33:32;15.20;52.50
21169;DHT22;10742;51.816;8.662;2023-06-04T01:36:34;15.20;52.30
21169;DHT22;10742;51.816;8.662;2023-06-04T01:39:37;15.10;52.50
21169;DHT22;10742;51.816;8.662;2023-06-04T01:42:41;15.00;52.80
21169;DHT22;10742;51.816;8.662;2023-06-04T01:45:44;15.00;52.80
21169;DHT22;10742;51.816;8.662;2023-06-04T01:48:46;14.90;52.80
21169;DHT22;10742;51.816;8.662;2023-06-04T01:51:51;14.80;52.90
21169;DHT22;10742;51.816;8.662;2023-06-04T01:54:54;14.70;53.10
21169;DHT22;10742;51.816;8.662;2023-06-04T01:57:56;14.70;53.20
21169;DHT22;10742;51.816;8.662;2023-06-04T02:00:59;14.60;53.40
21169;DHT22;10742;51.816;8.662;2023-06-04T02:04:02;14.50;53.50
21169;DHT22;10742;51.816;8.662;2023-06-04T02:07:05;14.50;53.60
21169;DHT22;10742;51.816;8.662;2023-06-04T02:10:10;14.40;53.80
21169;DHT22;10742;51.816;8.662;2023-06-04T02:13:14;14.40;54.00
21169;DHT22;10742;51.816;8.662;2023-06-04T02:16:17;14.40;54.00
21169;DHT22;10742;51.816;8.662;2023-06-04T02:19:20;14.40;54.10
21169;DHT22;10742;51.816;8.662;2023-06-04T02:22:23;14.30;54.10
21169;DHT22;10742;51.816;8.662;2023-06-04T02:25:26;14.30;54.20
21169;DHT22;10742;51.816;8.662;2023-06-04T02:28:28;14.30;54.30
21169;DHT22;10742;51.816;8.662;2023-06-04T02:31:32;14.20;54.40
21169;DHT22;10742;51.816;8.662;2023-06-04T02:34:34;14.20;54.50
21169;DHT22;10742;51.816;8.662;2023-06-04T02:37:37;14.20;54.70
21169;DHT22;10742;51.816;8.662;2023-06-04T02:40:39;14.10;54.70
21169;DHT22;10742;51.816;8.662;2023-06-04T02:43:42;14.10;54.80
21169;DHT22;10742;51.816;8.662;2023-06-04T02:46:45;14.10;54.80
21169;DHT22;10742;51.816;8.662;2023-06-04T02:49:48;14.10;54.90
21169;DHT22;10742;51.816;8.662;2023-06-04T02:52:50;14.00;55.00
21169;DHT22;10742;51.816;8.662;2023-06-04T02:55:53;14.00;55.10
21169;DHT22;10742;51.816;8.662;2023-06-04T02:58:56;13.90;55.10
21169;DHT22;10742;51.816;8.662;2023-06-04T03:01:58;13.90;55.20
21169;DHT22;10742;51.816;8.662;2023-06-04T03:05:01;13.90;55.40
21169;DHT22;10742;51.816;8.662;2023-06-04T03:08:04;13.90;56.30
21169;DHT22;10742;51.816;8.662;2023-06-04T03:11:07;13.80;55.70
21169;DHT22;10742;51.816;8.662;2023-06-04T03:14:09;13.80;55.90
21169;DHT22;10742;51.816;8.662;2023-06-04T03:17:12;13.70;56.00
21169;DHT22;10742;51.816;8.662;2023-06-04T03:20:15;13.70;56.10
21169;DHT22;10742;51.816;8.662;2023-06-04T03:23:17;13.70;56.30
21169;DHT22;10742;51.816;8.662;2023-06-04T03:26:20;13.70;56.40
21169;DHT22;10742;51.816;8.662;2023-06-04T03:29:22;13.70;56.50
21169;DHT22;10742;51.816;8.662;2023-06-04T03:32:26;13.70;56.50
21169;DHT22;10742;51.816;8.662;2023-06-04T03:35:29;13.70;56.40
21169;DHT22;10742;51.816;8.662;2023-06-04T03:38:32;13.70;56.50
21169;DHT22;10742;51.816;8.662;2023-06-04T03:41:34;13.60;56.50
21169;DHT22;10742;51.816;8.662;2023-06-04T03:44:37;13.60;56.60
21169;DHT22;10742;51.816;8.662;2023-06-04T03:47:42;13.50;56.60
21169;DHT22;10742;51.816;8.662;2023-06-04T03:50:45;13.50;56.70
21169;DHT22;10742;51.816;8.662;2023-06-04T03:53:49;13.50;56.80
21169;DHT22;10742;51.816;8.662;2023-06-04T03:56:52;13.40;56.90
21169;DHT22;10742;51.816;8.662;2023-06-04T03:59:55;13.40;57.00
21169;DHT22;10742;51.816;8.662;2023-06-04T04:02:58;13.40;57.00
21169;DHT22;10742;51.816;8.662;2023-06-04T04:06:03;13.40;57.10
21169;DHT22;10742;51.816;8.662;2023-06-04T04:09:05;13.40;57.30
21169;DHT22;10742;51.816;8.662;2023-06-04T04:12:10;13.40;57.40
21169;DHT22;10742;51.816;8.662;2023-06-04T04:15:13;13.40;57.50
21169;DHT22;10742;51.816;8.662;2023-06-04T04:18:16;13.40;57.50
21169;DHT22;10742;51.816;8.662;2023-06-04T04:21:20;13.40;57.50
21169;DHT22;10742;51.816;8.662;2023-06-04T04:24:27;13.40;57.60
21169;DHT22;10742;51.816;8.662;2023-06-04T04:27:34;13.40;58.10
21169;DHT22;10742;51.816;8.662;2023-06-04T04:30:43;13.40;58.00
21169;DHT22;10742;51.816;8.662;2023-06-04T04:33:47;13.30;58.10
21169;DHT22;10742;51.816;8.662;2023-06-04T04:36:50;13.40;58.30
21169;DHT22;10742;51.816;8.662;2023-06-04T04:39:55;13.40;58.50
21169;DHT22;10742;51.816;8.662;2023-06-04T04:43:00;13.50;58.50
21169;DHT22;10742;51.816;8.662;2023-06-04T04:46:02;13.50;58.70
21169;DHT22;10742;51.816;8.662;2023-06-04T04:49:06;13.60;58.80
21169;DHT22;10742;51.816;8.662;2023-06-04T04:52:09;13.60;59.00
21169;DHT22;10742;51.816;8.662;2023-06-04T04:55:14;13.70;59.10
21169;DHT22;10742;51.816;8.662;2023-06-04T04:58:20;13.70;59.40
21169;DHT22;10742;51.816;8.662;2023-06-04T05:01:23;13.80;59.60
21169;DHT22;10742;51.816;8.662;2023-06-04T05:04:27;13.90;60.00
21169;DHT22;10742;51.816;8.662;2023-06-04T05:07:30;13.90;60.40
21169;DHT22;10742;51.816;8.662;2023-06-04T05:10:33;14.00;61.00
21169;DHT22;10742;51.816;8.662;2023-06-04T05:13:39;14.10;61.50
21169;DHT22;10742;51.816;8.662;2023-06-04T05:16:45;14.30;61.90
21169;DHT22;10742;51.816;8.662;2023-06-04T05:19:48;14.40;62.10
21169;DHT22;10742;51.816;8.662;2023-06-04T05:22:50;14.60;62.10
21169;DHT22;10742;51.816;8.662;2023-06-04T05:25:55;14.90;62.10
21169;DHT22;10742;51.816;8.662;2023-06-04T05:28:57;15.10;62.10
21169;DHT22;10742;51.816;8.662;2023-06-04T05:32:03;15.30;62.10
21169;DHT22;10742;51.816;8.662;2023-06-04T05:35:07;15.60;62.10
21169;DHT22;10742;51.816;8.662;2023-06-04T05:38:10;15.80;61.80
21169;DHT22;10742;51.816;8.662;2023-06-04T05:41:18;16.10;61.40
21169;DHT22;10742;51.816;8.662;2023-06-04T05:44:20;16.40;60.90
21169;DHT22;10742;51.816;8.662;2023-06-04T05:47:23;16.70;60.60
21169;DHT22;10742;51.816;8.662;2023-06-04T05:50:28;17.00;60.20
21169;DHT22;10742;51.816;8.662;2023-06-04T05:53:30;17.30;59.80
21169;DHT22;10742;51.816;8.662;2023-06-04T05:56:33;17.60;59.30
21169;DHT22;10742;51.816;8.662;2023-06-04T05:59:36;17.90;58.70
21169;DHT22;10742;51.816;8.662;2023-06-04T06:02:42;18.20;58.30
21169;DHT22;10742;51.816;8.662;2023-06-04T06:06:00;18.50;58.00
21169;DHT22;10742;51.816;8.662;2023-06-04T06:09:04;18.80;57.40
21169;DHT22;10742;51.816;8.662;2023-06-04T06:12:08;19.10;56.90
21169;DHT22;10742;51.816;8.662;2023-06-04T06:15:13;19.40;57.30
21169;DHT22;10742;51.816;8.662;2023-06-04T06:18:17;19.80;56.20
21169;DHT22;10742;51.816;8.662;2023-06-04T06:21:20;20.10;55.80
21169;DHT22;10742;51.816;8.662;2023-06-04T06:24:23;20.40;55.30
21169;DHT22;10742;51.816;8.662;2023-06-04T06:27:25;20.70;54.70
21169;DHT22;10742;51.816;8.662;2023-06-04T06:30:28;21.10;54.30
21169;DHT22;10742;51.816;8.662;2023-06-04T06:33:31;21.30;53.70
21169;DHT22;10742;51.816;8.662;2023-06-04T06:36:33;21.70;53.20
21169;DHT22;10742;51.816;8.662;2023-06-04T06:39:36;21.90;52.50
21169;DHT22;10742;51.816;8.662;2023-06-04T06:42:38;22.20;51.90
21169;DHT22;10742;51.816;8.662;2023-06-04T06:45:41;22.50;51.40
21169;DHT22;10742;51.816;8.662;2023-06-04T06:48:43;22.70;51.10
21169;DHT22;10742;51.816;8.662;2023-06-04T06:51:47;23.00;50.60
21169;DHT22;10742;51.816;8.662;2023-06-04T06:54:50;23.20;50.40
21169;DHT22;10742;51.816;8.662;2023-06-04T06:57:52;23.50;50.20
21169;DHT22;10742;51.816;8.662;2023-06-04T07:00:55;23.70;50.00
21169;DHT22;10742;51.816;8.662;2023-06-04T07:04:17;23.90;49.70
21169;DHT22;10742;51.816;8.662;2023-06-04T07:07:39;24.10;49.50
21169;DHT22;10742;51.816;8.662;2023-06-04T07:11:02;24.40;49.10
21169;DHT22;10742;51.816;8.662;2023-06-04T07:14:24;24.50;48.80
21169;DHT22;10742;51.816;8.662;2023-06-04T07:17:45;24.80;48.80
21169;DHT22;10742;51.816;8.662;2023-06-04T07:21:07;25.00;48.30
21169;DHT22;10742;51.816;8.662;2023-06-04T07:24:28;25.30;48.10
21169;DHT22;10742;51.816;8.662;2023-06-04T07:27:50;25.50;47.70
21169;DHT22;10742;51.816;8.662;2023-06-04T07:31:17;25.70;47.10
21169;DHT22;10742;51.816;8.662;2023-06-04T07:34:20;25.90;46.50
21169;DHT22;10742;51.816;8.662;2023-06-04T07:37:23;26.10;46.50
21169;DHT22;10742;51.816;8.662;2023-06-04T07:40:25;26.20;46.10
21169;DHT22;10742;51.816;8.662;2023-06-04T07:43:28;26.40;45.90
21169;DHT22;10742;51.816;8.662;2023-06-04T07:46:30;26.60;45.70
21169;DHT22;10742;51.816;8.662;2023-06-04T07:49:33;26.70;45.80
21169;DHT22;10742;51.816;8.662;2023-06-04T07:52:35;26.90;45.60
21169;DHT22;10742;51.816;8.662;2023-06-04T07:55:38;27.10;45.40
21169;DHT22;10742;51.816;8.662;2023-06-04T07:58:40;27.30;45.20
21169;DHT22;10742;51.816;8.662;2023-06-04T08:01:43;27.50;45.00
21169;DHT22;10742;51.816;8.662;2023-06-04T08:04:45;27.70;44.70
21169;DHT22;10742;51.816;8.662;2023-06-04T08:07:49;28.00;44.20
21169;DHT22;10742;51.816;8.662;2023-06-04T08:10:51;28.20;43.40
21169;DHT22;10742;51.816;8.662;2023-06-04T08:13:54;28.40;42.50
21169;DHT22;10742;51.816;8.662;2023-06-04T08:16:56;28.60;41.90
21169;DHT22;10742;51.816;8.662;2023-06-04T08:19:59;28.70;41.40
21169;DHT22;10742;51.816;8.662;2023-06-04T08:23:02;28.80;41.20
21169;DHT22;10742;51.816;8.662;2023-06-04T08:26:06;28.90;40.00
21169;DHT22;10742;51.816;8.662;2023-06-04T08:29:10;29.00;39.10
21169;DHT22;10742;51.816;8.662;2023-06-04T08:32:12;29.10;39.00
21169;DHT22;10742;51.816;8.662;2023-06-04T08:35:15;29.10;37.80
21169;DHT22;10742;51.816;8.662;2023-06-04T08:38:17;29.10;37.70
21169;DHT22;10742;51.816;8.662;2023-06-04T08:41:45;29.20;37.70
21169;DHT22;10742;51.816;8.662;2023-06-04T08:44:51;29.20;36.40
21169;DHT22;10742;51.816;8.662;2023-06-04T08:47:56;29.20;36.10
21169;DHT22;10742;51.816;8.662;2023-06-04T08:51:00;29.10;36.50
21169;DHT22;10742;51.816;8.662;2023-06-04T08:54:08;29.00;36.20
21169;DHT22;10742;51.816;8.662;2023-06-04T08:57:12;29.00;35.70
21169;DHT22;10742;51.816;8.662;2023-06-04T09:00:15;29.00;36.10
21169;DHT22;10742;51.816;8.662;2023-06-04T09:03:20;29.10;36.30
21169;DHT22;10742;51.816;8.662;2023-06-04T09:06:25;29.10;35.90
21169;DHT22;10742;51.816;8.662;2023-06-04T09:09:28;29.20;35.50
21169;DHT22;10742;51.816;8.662;2023-06-04T09:12:32;29.20;35.10
21169;DHT22;10742;51.816;8.662;2023-06-04T09:15:36;29.30;35.10
21169;DHT22;10742;51.816;8.662;2023-06-04T09:18:39;29.30;35.10
21169;DHT22;10742;51.816;8.662;2023-06-04T09:21:49;29.30;35.10
21169;DHT22;10742;51.816;8.662;2023-06-04T09:24:53;29.40;34.90
21169;DHT22;10742;51.816;8.662;2023-06-04T09:28:05;29.60;35.20
21169;DHT22;10742;51.816;8.662;2023-06-04T09:31:09;29.60;34.60
21169;DHT22;10742;51.816;8.662;2023-06-04T09:34:12;29.70;34.10
21169;DHT22;10742;51.816;8.662;2023-06-04T09:37:15;29.70;34.30
21169;DHT22;10742;51.816;8.662;2023-06-04T09:40:19;29.60;34.20
21169;DHT22;10742;51.816;8.662;2023-06-04T09:43:22;29.60;33.40
21169;DHT22;10742;51.816;8.662;2023-06-04T09:46:28;29.60;33.20
21169;DHT22;10742;51.816;8.662;2023-06-04T09:49:40;29.50;33.10
21169;DHT22;10742;51.816;8.662;2023-06-04T09:52:43;29.40;32.60
21169;DHT22;10742;51.816;8.662;2023-06-04T09:56:02;29.40;33.40
21169;DHT22;10742;51.816;8.662;2023-06-04T09:59:13;29.30;33.10
21169;DHT22;10742;51.816;8.662;2023-06-04T10:02:20;29.30;33.30
21169;DHT22;10742;51.816;8.662;2023-06-04T10:05:24;29.30;33.00
21169;DHT22;10742;51.816;8.662;2023-06-04T10:08:29;29.40;33.40
21169;DHT22;10742;51.816;8.662;2023-06-04T10:11:35;29.50;33.30
21169;DHT22;10742;51.816;8.662;2023-06-04T10:14:43;29.60;32.80
21169;DHT22;10742;51.816;8.662;2023-06-04T10:17:48;29.60;32.20
21169;DHT22;10742;51.816;8.662;2023-06-04T10:20:54;29.40;32.30
21169;DHT22;10742;51.816;8.662;2023-06-04T10:23:57;29.30;33.00
21169;DHT22;10742;51.816;8.662;2023-06-04T10:27:00;29.20;33.30
21169;DHT22;10742;51.816;8.662;2023-06-04T10:30:04;29.30;33.20
21169;DHT22;10742;51.816;8.662;2023-06-04T10:33:07;29.30;33.30
21169;DHT22;10742;51.816;8.662;2023-06-04T10:36:21;29.40;34.20
21169;DHT22;10742;51.816;8.662;2023-06-04T10:39:34;29.50;32.50
21169;DHT22;10742;51.816;8.662;2023-06-04T10:42:40;29.60;32.50
21169;DHT22;10742;51.816;8.662;2023-06-04T10:45:43;29.70;32.10
21169;DHT22;10742;51.816;8.662;2023-06-04T10:51:49;29.70;32.80
21169;DHT22;10742;51.816;8.662;2023-06-04T10:54:51;29.60;32.50
21169;DHT22;10742;51.816;8.662;2023-06-04T10:58:04;29.70;32.90
21169;DHT22;10742;51.816;8.662;2023-06-04T11:01:08;29.70;33.00
21169;DHT22;10742;51.816;8.662;2023-06-04T11:04:24;29.90;33.00
21169;DHT22;10742;51.816;8.662;2023-06-04T11:07:27;30.00;32.00
21169;DHT22;10742;51.816;8.662;2023-06-04T11:10:38;30.10;32.40
21169;DHT22;10742;51.816;8.662;2023-06-04T11:13:41;30.10;32.60
21169;DHT22;10742;51.816;8.662;2023-06-04T11:16:44;30.20;33.00
21169;DHT22;10742;51.816;8.662;2023-06-04T11:19:46;30.30;32.90
21169;DHT22;10742;51.816;8.662;2023-06-04T11:22:57;30.50;32.80
21169;DHT22;10742;51.816;8.662;2023-06-04T11:26:01;30.60;32.10
21169;DHT22;10742;51.816;8.662;2023-06-04T11:29:09;30.60;32.00
21169;DHT22;10742;51.816;8.662;2023-06-04T11:32:21;30.70;31.60
21169;DHT22;10742;51.816;8.662;2023-06-04T11:35:24;30.70;31.70
21169;DHT22;10742;51.816;8.662;2023-06-04T11:38:27;30.70;31.90
21169;DHT22;10742;51.816;8.662;2023-06-04T11:41:30;30.70;31.80
21169;DHT22;10742;51.816;8.662;2023-06-04T11:44:33;30.80;31.70
21169;DHT22;10742;51.816;8.662;2023-06-04T11:47:36;30.80;31.50
21169;DHT22;10742;51.816;8.662;2023-06-04T11:50:39;30.90;31.70
21169;DHT22;10742;51.816;8.662;2023-06-04T11:53:43;30.80;31.40
21169;DHT22;10742;51.816;8.662;2023-06-04T11:56:48;30.90;31.50
21169;DHT22;10742;51.816;8.662;2023-06-04T11:59:50;30.70;30.90
21169;DHT22;10742;51.816;8.662;2023-06-04T12:02:54;30.60;30.60
21169;DHT22;10742;51.816;8.662;2023-06-04T12:05:57;30.40;31.10
21169;DHT22;10742;51.816;8.662;2023-06-04T12:09:00;30.20;31.10
21169;DHT22;10742;51.816;8.662;2023-06-04T12:12:04;30.10;30.80
21169;DHT22;10742;51.816;8.662;2023-06-04T12:15:08;30.00;30.60
21169;DHT22;10742;51.816;8.662;2023-06-04T12:18:23;29.70;30.60
21169;DHT22;10742;51.816;8.662;2023-06-04T12:21:26;29.50;31.00
21169;DHT22;10742;51.816;8.662;2023-06-04T12:24:34;29.40;31.60
21169;DHT22;10742;51.816;8.662;2023-06-04T12:27:47;29.30;31.50
21169;DHT22;10742;51.816;8.662;2023-06-04T12:30:51;29.40;31.50
21169;DHT22;10742;51.816;8.662;2023-06-04T12:33:53;29.50;31.60
21169;DHT22;10742;51.816;8.662;2023-06-04T12:36:57;29.60;31.50
21169;DHT22;10742;51.816;8.662;2023-06-04T12:40:00;29.60;30.80
21169;DHT22;10742;51.816;8.662;2023-06-04T12:43:02;29.60;30.80
21169;DHT22;10742;51.816;8.662;2023-06-04T12:46:05;29.40;30.80
21169;DHT22;10742;51.816;8.662;2023-06-04T12:49:07;29.40;30.90
21169;DHT22;10742;51.816;8.662;2023-06-04T12:52:10;29.30;31.00
21169;DHT22;10742;51.816;8.662;2023-06-04T12:55:12;29.20;31.40
21169;DHT22;10742;51.816;8.662;2023-06-04T12:58:15;29.20;31.50
21169;DHT22;10742;51.816;8.662;2023-06-04T13:01:17;29.20;31.70
21169;DHT22;10742;51.816;8.662;2023-06-04T13:04:20;29.20;31.40
21169;DHT22;10742;51.816;8.662;2023-06-04T13:07:23;29.20;31.20
21169;DHT22;10742;51.816;8.662;2023-06-04T13:10:26;29.20;31.30
21169;DHT22;10742;51.816;8.662;2023-06-04T13:13:29;29.10;31.50
21169;DHT22;10742;51.816;8.662;2023-06-04T13:16:31;29.00;31.40
21169;DHT22;10742;51.816;8.662;2023-06-04T13:19:35;29.00;31.70
21169;DHT22;10742;51.816;8.662;2023-06-04T13:22:38;28.90;31.50
21169;DHT22;10742;51.816;8.662;2023-06-04T13:25:41;28.90;31.60
21169;DHT22;10742;51.816;8.662;2023-06-04T13:28:44;28.80;31.80
21169;DHT22;10742;51.816;8.662;2023-06-04T13:31:46;28.80;32.00
21169;DHT22;10742;51.816;8.662;2023-06-04T13:34:49;28.70;32.20
21169;DHT22;10742;51.816;8.662;2023-06-04T13:37:51;28.60;32.40
21169;DHT22;10742;51.816;8.662;2023-06-04T13:40:54;28.60;32.50
21169;DHT22;10742;51.816;8.662;2023-06-04T13:43:57;28.50;32.30
21169;DHT22;10742;51.816;8.662;2023-06-04T13:46:59;28.40;32.30
21169;DHT22;10742;51.816;8.662;2023-06-04T13:50:02;28.40;32.40
21169;DHT22;10742;51.816;8.662;2023-06-04T13:53:05;28.30;32.50
21169;DHT22;10742;51.816;8.662;2023-06-04T13:56:08;28.30;32.50
21169;DHT22;10742;51.816;8.662;2023-06-04T13:59:10;28.20;32.20
21169;DHT22;10742;51.816;8.662;2023-06-04T14:02:13;28.20;32.60
21169;DHT22;10742;51.816;8.662;2023-06-04T14:05:16;28.20;32.50
21169;DHT22;10742;51.816;8.662;2023-06-04T14:08:18;28.20;32.30
21169;DHT22;10742;51.816;8.662;2023-06-04T14:11:21;28.20;32.30
21169;DHT22;10742;51.816;8.662;2023-06-04T14:14:24;28.20;32.30
21169;DHT22;10742;51.816;8.662;2023-06-04T14:17:27;28.20;32.40
21169;DHT22;10742;51.816;8.662;2023-06-04T14:20:30;28.20;32.40
21169;DHT22;10742;51.816;8.662;2023-06-04T14:23:32;28.20;32.10
21169;DHT22;10742;51.816;8.662;2023-06-04T14:26:35;28.20;32.10
21169;DHT22;10742;51.816;8.662;2023-06-04T14:29:38;28.10;31.60
21169;DHT22;10742;51.816;8.662;2023-06-04T14:32:41;28.10;31.80
21169;DHT22;10742;51.816;8.662;2023-06-04T14:35:44;28.00;32.10
21169;DHT22;10742;51.816;8.662;2023-06-04T14:38:49;28.00;32.10
21169;DHT22;10742;51.816;8.662;2023-06-04T14:41:52;28.00;31.90
21169;DHT22;10742;51.816;8.662;2023-06-04T14:44:54;27.90;32.00
21169;DHT22;10742;51.816;8.662;2023-06-04T14:47:57;28.00;32.10
21169;DHT22;10742;51.816;8.662;2023-06-04T14:51:07;28.00;32.30
21169;DHT22;10742;51.816;8.662;2023-06-04T14:54:10;28.00;32.30
21169;DHT22;10742;51.816;8.662;2023-06-04T14:57:13;28.00;32.20
21169;DHT22;10742;51.816;8.662;2023-06-04T15:00:16;28.00;32.10
21169;DHT22;10742;51.816;8.662;2023-06-04T15:03:19;28.00;32.10
21169;DHT22;10742;51.816;8.662;2023-06-04T15:06:21;28.00;31.80
21169;DHT22;10742;51.816;8.662;2023-06-04T15:09:24;27.90;31.90
21169;DHT22;10742;51.816;8.662;2023-06-04T15:12:26;27.90;32.00
21169;DHT22;10742;51.816;8.662;2023-06-04T15:15:29;27.90;32.10
21169;DHT22;10742;51.816;8.662;2023-06-04T15:18:31;27.80;32.00
21169;DHT22;10742;51.816;8.662;2023-06-04T15:21:34;27.80;32.00
21169;DHT22;10742;51.816;8.662;2023-06-04T15:24:37;27.70;32.30
21169;DHT22;10742;51.816;8.662;2023-06-04T15:27:40;27.80;32.40
21169;DHT22;10742;51.816;8.662;2023-06-04T15:30:43;27.80;32.40
21169;DHT22;10742;51.816;8.662;2023-06-04T15:33:45;27.80;32.40
21169;DHT22;10742;51.816;8.662;2023-06-04T15:36:48;27.80;32.10
21169;DHT22;10742;51.816;8.662;2023-06-04T15:39:51;27.70;32.30
21169;DHT22;10742;51.816;8.662;2023-06-04T15:43:13;27.70;32.60
21169;DHT22;10742;51.816;8.662;2023-06-04T15:46:35;27.70;32.80
21169;DHT22;10742;51.816;8.662;2023-06-04T15:49:57;27.70;32.70
21169;DHT22;10742;51.816;8.662;2023-06-04T15:53:00;27.70;32.60
21169;DHT22;10742;51.816;8.662;2023-06-04T15:56:02;27.80;32.80
21169;DHT22;10742;51.816;8.662;2023-06-04T15:59:05;27.70;32.70
21169;DHT22;10742;51.816;8.662;2023-06-04T16:02:08;27.80;32.60
21169;DHT22;10742;51.816;8.662;2023-06-04T16:05:10;27.80;32.70
21169;DHT22;10742;51.816;8.662;2023-06-04T16:08:14;27.70;32.50
21169;DHT22;10742;51.816;8.662;2023-06-04T16:11:17;27.70;32.60
21169;DHT22;10742;51.816;8.662;2023-06-04T16:14:20;27.70;32.40
21169;DHT22;10742;51.816;8.662;2023-06-04T16:17:22;27.70;32.20
21169;DHT22;10742;51.816;8.662;2023-06-04T16:20:25;27.60;32.20
21169;DHT22;10742;51.816;8.662;2023-06-04T16:23:27;27.50;32.30
21169;DHT22;10742;51.816;8.662;2023-06-04T16:26:30;27.50;32.60
21169;DHT22;10742;51.816;8.662;2023-06-04T16:29:32;27.40;32.40
21169;DHT22;10742;51.816;8.662;2023-06-04T16:32:35;27.40;32.60
21169;DHT22;10742;51.816;8.662;2023-06-04T16:35:38;27.40;32.50
21169;DHT22;10742;51.816;8.662;2023-06-04T16:38:40;27.40;32.40
21169;DHT22;10742;51.816;8.662;2023-06-04T16:41:43;27.40;32.40
21169;DHT22;10742;51.816;8.662;2023-06-04T16:44:45;27.30;32.30
21169;DHT22;10742;51.816;8.662;2023-06-04T16:47:49;27.30;32.60
21169;DHT22;10742;51.816;8.662;2023-06-04T16:50:51;27.30;32.60
21169;DHT22;10742;51.816;8.662;2023-06-04T16:53:55;27.30;32.60
21169;DHT22;10742;51.816;8.662;2023-06-04T16:56:58;27.30;32.40
21169;DHT22;10742;51.816;8.662;2023-06-04T17:00:01;27.30;32.40
21169;DHT22;10742;51.816;8.662;2023-06-04T17:03:11;27.20;32.60
21169;DHT22;10742;51.816;8.662;2023-06-04T17:06:14;27.20;32.60
21169;DHT22;10742;51.816;8.662;2023-06-04T17:09:16;27.20;32.70
21169;DHT22;10742;51.816;8.662;2023-06-04T17:12:18;27.20;32.70
21169;DHT22;10742;51.816;8.662;2023-06-04T17:15:21;27.10;32.40
21169;DHT22;10742;51.816;8.662;2023-06-04T17:18:27;27.20;32.60
21169;DHT22;10742;51.816;8.662;2023-06-04T17:21:29;27.20;33.00
21169;DHT22;10742;51.816;8.662;2023-06-04T17:24:32;27.10;33.00
21169;DHT22;10742;51.816;8.662;2023-06-04T17:27:34;27.10;32.90
21169;DHT22;10742;51.816;8.662;2023-06-04T17:30:37;27.10;32.90
21169;DHT22;10742;51.816;8.662;2023-06-04T17:33:40;27.00;32.90
21169;DHT22;10742;51.816;8.662;2023-06-04T17:36:42;27.00;33.00
21169;DHT22;10742;51.816;8.662;2023-06-04T17:39:46;26.90;32.80
21169;DHT22;10742;51.816;8.662;2023-06-04T17:42:48;26.80;32.80
21169;DHT22;10742;51.816;8.662;2023-06-04T17:45:51;26.80;33.10
21169;DHT22;10742;51.816;8.662;2023-06-04T17:48:54;26.70;33.20
21169;DHT22;10742;51.816;8.662;2023-06-04T17:51:57;26.60;33.30
21169;DHT22;10742;51.816;8.662;2023-06-04T17:55:00;26.50;33.50
21169;DHT22;10742;51.816;8.662;2023-06-04T17:58:03;26.50;33.80
21169;DHT22;10742;51.816;8.662;2023-06-04T18:01:05;26.50;33.90
21169;DHT22;10742;51.816;8.662;2023-06-04T18:04:08;26.40;34.00
21169;DHT22;10742;51.816;8.662;2023-06-04T18:07:11;26.40;34.50
21169;DHT22;10742;51.816;8.662;2023-06-04T18:10:13;26.30;34.50
21169;DHT22;10742;51.816;8.662;2023-06-04T18:13:16;26.30;34.70
21169;DHT22;10742;51.816;8.662;2023-06-04T18:16:19;26.20;34.80
21169;DHT22;10742;51.816;8.662;2023-06-04T18:19:22;26.20;34.90
21169;DHT22;10742;51.816;8.662;2023-06-04T18:22:25;26.20;35.00
21169;DHT22;10742;51.816;8.662;2023-06-04T18:25:27;26.10;35.10
21169;DHT22;10742;51.816;8.662;2023-06-04T18:28:30;26.00;35.20
21169;DHT22;10742;51.816;8.662;2023-06-04T18:31:33;26.00;35.20
21169;DHT22;10742;51.816;8.662;2023-06-04T18:34:35;26.00;35.40
21169;DHT22;10742;51.816;8.662;2023-06-04T18:37:38;25.90;35.40
21169;DHT22;10742;51.816;8.662;2023-06-04T18:40:41;25.80;35.80
21169;DHT22;10742;51.816;8.662;2023-06-04T18:43:43;25.80;36.50
21169;DHT22;10742;51.816;8.662;2023-06-04T18:46:46;25.80;35.90
21169;DHT22;10742;51.816;8.662;2023-06-04T18:49:49;25.80;36.00
21169;DHT22;10742;51.816;8.662;2023-06-04T18:52:51;25.80;36.20
21169;DHT22;10742;51.816;8.662;2023-06-04T18:55:55;25.70;36.30
21169;DHT22;10742;51.816;8.662;2023-06-04T18:58:59;25.70;36.30
21169;DHT22;10742;51.816;8.662;2023-06-04T19:02:02;25.70;36.40
21169;DHT22;10742;51.816;8.662;2023-06-04T19:05:06;25.70;36.70
21169;DHT22;10742;51.816;8.662;2023-06-04T19:08:11;25.60;36.80
21169;DHT22;10742;51.816;8.662;2023-06-04T19:11:14;25.60;37.20
21169;DHT22;10742;51.816;8.662;2023-06-04T19:14:16;25.60;37.40
21169;DHT22;10742;51.816;8.662;2023-06-04T19:17:20;25.50;37.30
21169;DHT22;10742;51.816;8.662;2023-06-04T19:20:23;25.50;37.90
21169;DHT22;10742;51.816;8.662;2023-06-04T19:23:25;25.50;37.70
21169;DHT22;10742;51.816;8.662;2023-06-04T19:26:48;25.50;37.60